Startpagina
METAR-TAF:

METAR-TAF

Vliegvelden :

Luchthaven Oslo Gardermoen

Oslo, Noorwegen

breedte: 60-12N, lengte: 011-05E, hoogte: 208 m

Actueel weer

Dit bericht is 22 minuten geleden gemaakt, om 16:50 UTC
Wind 3 kt uit het westen, variërend tussen het zuidzuidwesten en het noorden
Temperatuur 8°C
Vochtigheid 39%
Druk 1018 hPa
Zicht 10 km of meer
geen wolken onder 1500 m en geen cumulonimbus

METAR: ENGM 201650Z 26003KT 200V360 CAVOK 08/M05 Q1018 NOSIG

Tijdstip: 18:12 (17:12 UTC)

Verwachting

Verwachting geldig van 20 om 12 UTC tot 21 om 12 UTC
Wind 8 kt uit het zuidwesten
Zicht 10 km of meer
Weinig wolken op 4000 ft
Kans 40%
van 21 om 04 UTC tot 21 om 08 UTC
Zicht: 3000 m
Gebroken wolken op 400 ft
lichte motregen, regen, nevel

TAF: ENGM 2012/2112 23008KT 9999 FEW040 PROB40 2104/2108 3000 -DZRA BR BKN004

Waarnemingen en weersverwachtingen van meer dan 4000 vliegvelden (METAR en TAF).

De beschikbare stations zijn de gele en rode punten op de kaart.

Ga met uw muis naar het station om de naam te zien.

Klik dan om waarnemingen en weersverwachtingen te zien.

kaart wijzigen: klik op de groene knoppen met een zwart kruis om in te zoomen, op de groene knop met een streepje om uit te zoomen of op de groene pijlen voor aangrenzende kaarten.


METAR-TAF: